sensor_id;sensor_type;location;lat;lon;timestamp;pressure;altitude;pressure_sealevel;temperature;humidity
30516;BME280;17297;54.022;10.760;2024-02-15T00:02:20;101367.09;;;13.12;81.69
30516;BME280;17297;54.022;10.760;2024-02-15T00:04:46;101370.63;;;13.13;81.62
30516;BME280;17297;54.022;10.760;2024-02-15T00:07:11;101367.94;;;13.13;81.62
30516;BME280;17297;54.022;10.760;2024-02-15T00:09:36;101368.75;;;13.13;81.64
30516;BME280;17297;54.022;10.760;2024-02-15T00:12:02;101366.88;;;13.14;81.68
30516;BME280;17297;54.022;10.760;2024-02-15T00:14:27;101367.72;;;13.14;81.69
30516;BME280;17297;54.022;10.760;2024-02-15T00:16:54;101366.72;;;13.15;81.68
30516;BME280;17297;54.022;10.760;2024-02-15T00:19:20;101365.00;;;13.14;81.74
30516;BME280;17297;54.022;10.760;2024-02-15T00:21:46;101367.53;;;13.16;81.56
30516;BME280;17297;54.022;10.760;2024-02-15T00:24:12;101371.28;;;13.15;81.77
30516;BME280;17297;54.022;10.760;2024-02-15T00:26:38;101368.38;;;13.16;81.60
30516;BME280;17297;54.022;10.760;2024-02-15T00:29:03;101371.91;;;13.17;81.73
30516;BME280;17297;54.022;10.760;2024-02-15T00:31:29;101370.03;;;13.17;81.81
30516;BME280;17297;54.022;10.760;2024-02-15T00:33:54;101367.31;;;13.17;81.68
30516;BME280;17297;54.022;10.760;2024-02-15T00:36:20;101362.78;;;13.18;81.67
30516;BME280;17297;54.022;10.760;2024-02-15T00:38:45;101360.91;;;13.18;81.75
30516;BME280;17297;54.022;10.760;2024-02-15T00:41:11;101359.88;;;13.20;81.80
30516;BME280;17297;54.022;10.760;2024-02-15T00:43:36;101359.03;;;13.19;81.70
30516;BME280;17297;54.022;10.760;2024-02-15T00:46:01;101363.41;;;13.20;81.67
30516;BME280;17297;54.022;10.760;2024-02-15T00:48:27;101360.72;;;13.20;81.80
30516;BME280;17297;54.022;10.760;2024-02-15T00:50:58;101356.13;;;13.21;81.70
30516;BME280;17297;54.022;10.760;2024-02-15T00:53:24;101355.31;;;13.20;81.55
30516;BME280;17297;54.022;10.760;2024-02-15T00:55:49;101365.09;;;13.21;81.72
30516;BME280;17297;54.022;10.760;2024-02-15T00:58:14;101357.81;;;13.22;81.62
30516;BME280;17297;54.022;10.760;2024-02-15T01:00:40;101358.66;;;13.22;81.61
30516;BME280;17297;54.022;10.760;2024-02-15T01:03:05;101355.94;;;13.22;81.57
30516;BME280;17297;54.022;10.760;2024-02-15T01:05:30;101357.81;;;13.22;81.65
30516;BME280;17297;54.022;10.760;2024-02-15T01:07:56;101362.41;;;13.21;81.64
30516;BME280;17297;54.022;10.760;2024-02-15T01:10:22;101369.47;;;13.22;81.69
30516;BME280;17297;54.022;10.760;2024-02-15T01:12:49;101365.09;;;13.21;81.55
30516;BME280;17297;54.022;10.760;2024-02-15T01:15:15;101358.66;;;13.22;81.57
30516;BME280;17297;54.022;10.760;2024-02-15T01:17:44;101364.88;;;13.23;81.71
30516;BME280;17297;54.022;10.760;2024-02-15T01:20:10;101364.88;;;13.23;81.71
30516;BME280;17297;54.022;10.760;2024-02-15T01:22:36;101365.72;;;13.23;81.64
30516;BME280;17297;54.022;10.760;2024-02-15T01:25:01;101367.41;;;13.24;81.66
30516;BME280;17297;54.022;10.760;2024-02-15T01:27:27;101356.59;;;13.24;81.66
30516;BME280;17297;54.022;10.760;2024-02-15T01:29:56;101362.00;;;13.24;81.74
30516;BME280;17297;54.022;10.760;2024-02-15T01:32:21;101370.97;;;13.25;81.79
30516;BME280;17297;54.022;10.760;2024-02-15T01:34:47;101360.16;;;13.25;81.59
30516;BME280;17297;54.022;10.760;2024-02-15T01:37:12;101356.59;;;13.24;81.72
30516;BME280;17297;54.022;10.760;2024-02-15T01:39:37;101362.88;;;13.25;81.59
30516;BME280;17297;54.022;10.760;2024-02-15T01:42:03;101360.16;;;13.25;81.61
30516;BME280;17297;54.022;10.760;2024-02-15T01:44:28;101361.81;;;13.26;81.57
30516;BME280;17297;54.022;10.760;2024-02-15T01:46:54;101362.88;;;13.25;81.72
30516;BME280;17297;54.022;10.760;2024-02-15T01:49:23;101369.09;;;13.25;81.64
30516;BME280;17297;54.022;10.760;2024-02-15T01:51:52;101361.00;;;13.25;81.69
30516;BME280;17297;54.022;10.760;2024-02-15T01:54:20;101365.38;;;13.26;81.52
30516;BME280;17297;54.022;10.760;2024-02-15T01:56:45;101365.38;;;13.26;81.58
30516;BME280;17297;54.022;10.760;2024-02-15T01:59:14;101359.13;;;13.26;81.78
30516;BME280;17297;54.022;10.760;2024-02-15T02:01:40;101347.28;;;13.27;81.76
30516;BME280;17297;54.022;10.760;2024-02-15T02:04:06;101358.09;;;13.27;81.71
30516;BME280;17297;54.022;10.760;2024-02-15T02:06:31;101351.66;;;13.28;81.57
30516;BME280;17297;54.022;10.760;2024-02-15T02:08:57;101353.34;;;13.29;81.64
30516;BME280;17297;54.022;10.760;2024-02-15T02:11:23;101349.81;;;13.28;81.64
30516;BME280;17297;54.022;10.760;2024-02-15T02:13:49;101351.47;;;13.29;81.67
30516;BME280;17297;54.022;10.760;2024-02-15T02:16:28;101358.72;;;13.29;81.75
30516;BME280;17297;54.022;10.760;2024-02-15T02:18:57;101358.72;;;13.29;81.67
30516;BME280;17297;54.022;10.760;2024-02-15T02:21:27;101350.44;;;13.30;81.65
30516;BME280;17297;54.022;10.760;2024-02-15T02:23:56;101353.97;;;13.31;81.66
30516;BME280;17297;54.022;10.760;2024-02-15T02:26:23;101350.44;;;13.30;81.57
30516;BME280;17297;54.022;10.760;2024-02-15T02:28:49;101344.00;;;13.31;81.68
30516;BME280;17297;54.022;10.760;2024-02-15T02:31:14;101348.56;;;13.31;81.60
30516;BME280;17297;54.022;10.760;2024-02-15T02:33:41;101347.75;;;13.30;81.65
30516;BME280;17297;54.022;10.760;2024-02-15T02:36:06;101353.78;;;13.32;81.65
30516;BME280;17297;54.022;10.760;2024-02-15T02:38:35;101352.94;;;13.32;81.65
30516;BME280;17297;54.022;10.760;2024-02-15T02:41:04;101351.06;;;13.32;81.73
30516;BME280;17297;54.022;10.760;2024-02-15T02:43:29;101351.06;;;13.32;81.73
30516;BME280;17297;54.022;10.760;2024-02-15T02:45:54;101356.47;;;13.32;81.53
30516;BME280;17297;54.022;10.760;2024-02-15T02:48:20;101355.63;;;13.32;81.49
30516;BME280;17297;54.022;10.760;2024-02-15T02:50:47;101354.59;;;13.33;81.72
30516;BME280;17297;54.022;10.760;2024-02-15T02:53:12;101354.59;;;13.33;81.73
30516;BME280;17297;54.022;10.760;2024-02-15T02:55:39;101357.31;;;13.33;81.55
30516;BME280;17297;54.022;10.760;2024-02-15T02:58:05;101361.69;;;13.34;81.63
30516;BME280;17297;54.022;10.760;2024-02-15T03:00:30;101357.94;;;13.35;81.60
30516;BME280;17297;54.022;10.760;2024-02-15T03:02:57;101359.00;;;13.34;81.59
30516;BME280;17297;54.022;10.760;2024-02-15T03:05:22;101360.66;;;13.35;81.65
30516;BME280;17297;54.022;10.760;2024-02-15T03:07:48;101362.31;;;13.36;81.55
30516;BME280;17297;54.022;10.760;2024-02-15T03:10:15;101354.41;;;13.34;81.65
30516;BME280;17297;54.022;10.760;2024-02-15T03:12:40;101362.31;;;13.36;81.50
30516;BME280;17297;54.022;10.760;2024-02-15T03:15:12;101357.94;;;13.35;81.58
30516;BME280;17297;54.022;10.760;2024-02-15T03:17:38;101349.00;;;13.34;81.60
30516;BME280;17297;54.022;10.760;2024-02-15T03:20:08;101342.78;;;13.34;81.59
30516;BME280;17297;54.022;10.760;2024-02-15T03:22:54;101346.31;;;13.34;81.54
30516;BME280;17297;54.022;10.760;2024-02-15T03:25:20;101355.25;;;13.35;81.42
30516;BME280;17297;54.022;10.760;2024-02-15T03:27:48;101349.00;;;13.34;81.46
30516;BME280;17297;54.022;10.760;2024-02-15T03:30:14;101341.09;;;13.33;81.45
30516;BME280;17297;54.022;10.760;2024-02-15T03:32:39;101342.13;;;13.32;81.49
30516;BME280;17297;54.022;10.760;2024-02-15T03:35:06;101341.09;;;13.33;81.53
30516;BME280;17297;54.022;10.760;2024-02-15T03:37:32;101350.06;;;13.33;81.63
30516;BME280;17297;54.022;10.760;2024-02-15T03:40:00;101347.53;;;13.32;81.57
30516;BME280;17297;54.022;10.760;2024-02-15T03:42:25;101352.94;;;13.32;81.53
30516;BME280;17297;54.022;10.760;2024-02-15T03:44:51;101348.56;;;13.31;81.50
30516;BME280;17297;54.022;10.760;2024-02-15T03:47:16;101357.50;;;13.31;81.48
30516;BME280;17297;54.022;10.760;2024-02-15T03:49:42;101369.16;;;13.32;81.45
30516;BME280;17297;54.022;10.760;2024-02-15T03:52:08;101362.91;;;13.31;81.62
30516;BME280;17297;54.022;10.760;2024-02-15T03:54:36;101364.56;;;13.32;81.37
30516;BME280;17297;54.022;10.760;2024-02-15T03:57:01;101360.88;;;13.33;81.69
30516;BME280;17297;54.022;10.760;2024-02-15T03:59:26;101363.56;;;13.33;81.73
30516;BME280;17297;54.022;10.760;2024-02-15T04:01:55;101367.94;;;13.34;81.81
30516;BME280;17297;54.022;10.760;2024-02-15T04:04:22;101370.63;;;13.34;81.73
30516;BME280;17297;54.022;10.760;2024-02-15T04:06:51;101366.88;;;13.35;81.70
30516;BME280;17297;54.022;10.760;2024-02-15T04:09:17;101365.00;;;13.36;81.45
30516;BME280;17297;54.022;10.760;2024-02-15T04:11:46;101367.53;;;13.37;81.73
30516;BME280;17297;54.022;10.760;2024-02-15T04:14:15;101374.59;;;13.38;81.67
30516;BME280;17297;54.022;10.760;2024-02-15T04:16:41;101370.88;;;13.39;81.70
30516;BME280;17297;54.022;10.760;2024-02-15T04:19:06;101375.25;;;13.40;81.60
30516;BME280;17297;54.022;10.760;2024-02-15T04:21:31;101379.63;;;13.42;81.65
30516;BME280;17297;54.022;10.760;2024-02-15T04:23:57;101379.44;;;13.43;81.71
30516;BME280;17297;54.022;10.760;2024-02-15T04:26:22;101375.03;;;13.42;81.71
30516;BME280;17297;54.022;10.760;2024-02-15T04:28:54;101377.56;;;13.44;81.71
30516;BME280;17297;54.022;10.760;2024-02-15T04:31:20;101373.00;;;13.44;81.62
30516;BME280;17297;54.022;10.760;2024-02-15T04:33:55;101379.22;;;13.45;81.96
30516;BME280;17297;54.022;10.760;2024-02-15T04:36:21;101379.03;;;13.46;81.89
30516;BME280;17297;54.022;10.760;2024-02-15T04:38:50;101378.00;;;13.47;81.85
30516;BME280;17297;54.022;10.760;2024-02-15T04:41:17;101379.66;;;13.48;81.85
30516;BME280;17297;54.022;10.760;2024-02-15T04:43:46;101378.84;;;13.48;81.88
30516;BME280;17297;54.022;10.760;2024-02-15T04:46:12;101379.66;;;13.48;81.70
30516;BME280;17297;54.022;10.760;2024-02-15T04:48:39;101375.09;;;13.49;81.71
30516;BME280;17297;54.022;10.760;2024-02-15T04:51:07;101375.09;;;13.49;81.72
30516;BME280;17297;54.022;10.760;2024-02-15T04:53:32;101374.06;;;13.50;81.82
30516;BME280;17297;54.022;10.760;2024-02-15T04:55:58;101380.50;;;13.49;81.69
30516;BME280;17297;54.022;10.760;2024-02-15T04:58:26;101374.06;;;13.50;81.73
30516;BME280;17297;54.022;10.760;2024-02-15T05:00:53;101375.94;;;13.49;81.68
30516;BME280;17297;54.022;10.760;2024-02-15T05:03:22;101374.91;;;13.50;81.62
30516;BME280;17297;54.022;10.760;2024-02-15T05:05:48;101382.19;;;13.50;81.76
30516;BME280;17297;54.022;10.760;2024-02-15T05:08:13;101379.47;;;13.50;81.61
30516;BME280;17297;54.022;10.760;2024-02-15T05:10:39;101383.00;;;13.50;81.66
30516;BME280;17297;54.022;10.760;2024-02-15T05:13:04;101389.25;;;13.51;81.74
30516;BME280;17297;54.022;10.760;2024-02-15T05:15:29;101387.59;;;13.50;81.78
30516;BME280;17297;54.022;10.760;2024-02-15T05:17:56;101390.06;;;13.51;81.75
30516;BME280;17297;54.022;10.760;2024-02-15T05:20:21;101386.53;;;13.51;81.71
30516;BME280;17297;54.022;10.760;2024-02-15T05:22:46;101400.72;;;13.53;81.68
30516;BME280;17297;54.022;10.760;2024-02-15T05:25:12;101392.78;;;13.51;81.71
30516;BME280;17297;54.022;10.760;2024-02-15T05:27:38;101396.31;;;13.52;81.69
30516;BME280;17297;54.022;10.760;2024-02-15T05:30:04;101391.78;;;13.52;81.85
30516;BME280;17297;54.022;10.760;2024-02-15T05:32:35;101393.63;;;13.52;81.69
30516;BME280;17297;54.022;10.760;2024-02-15T05:35:08;101389.91;;;13.53;81.74
30516;BME280;17297;54.022;10.760;2024-02-15T05:37:33;101396.13;;;13.53;81.76
30516;BME280;17297;54.022;10.760;2024-02-15T05:40:00;101398.00;;;13.53;81.73
30516;BME280;17297;54.022;10.760;2024-02-15T05:42:25;101396.13;;;13.53;81.87
30516;BME280;17297;54.022;10.760;2024-02-15T05:44:52;101391.56;;;13.54;81.68
30516;BME280;17297;54.022;10.760;2024-02-15T05:47:17;101390.72;;;13.53;81.74
30516;BME280;17297;54.022;10.760;2024-02-15T05:49:43;101392.38;;;13.54;81.82
30516;BME280;17297;54.022;10.760;2024-02-15T05:52:10;101391.56;;;13.54;81.64
30516;BME280;17297;54.022;10.760;2024-02-15T05:54:35;101385.97;;;13.55;81.69
30516;BME280;17297;54.022;10.760;2024-02-15T05:57:01;101386.97;;;13.54;81.73
30516;BME280;17297;54.022;10.760;2024-02-15T05:59:26;101386.97;;;13.54;81.72
30516;BME280;17297;54.022;10.760;2024-02-15T06:01:51;101386.97;;;13.54;81.74
30516;BME280;17297;54.022;10.760;2024-02-15T06:04:18;101389.50;;;13.56;81.83
30516;BME280;17297;54.022;10.760;2024-02-15T06:06:44;101387.63;;;13.56;81.79
30516;BME280;17297;54.022;10.760;2024-02-15T06:09:15;101387.63;;;13.56;81.81
30516;BME280;17297;54.022;10.760;2024-02-15T06:11:41;101393.03;;;13.56;81.80
30516;BME280;17297;54.022;10.760;2024-02-15T06:14:06;101394.69;;;13.57;81.82
30516;BME280;17297;54.022;10.760;2024-02-15T06:16:32;101399.94;;;13.59;81.81
30516;BME280;17297;54.022;10.760;2024-02-15T06:18:57;101391.00;;;13.58;81.72
30516;BME280;17297;54.022;10.760;2024-02-15T06:21:23;101391.81;;;13.59;81.83
30516;BME280;17297;54.022;10.760;2024-02-15T06:23:49;101397.22;;;13.59;81.90
30516;BME280;17297;54.022;10.760;2024-02-15T06:26:16;101402.22;;;13.62;81.84
30516;BME280;17297;54.022;10.760;2024-02-15T06:28:42;101399.72;;;13.60;81.79
30516;BME280;17297;54.022;10.760;2024-02-15T06:31:25;101400.53;;;13.61;81.82
30516;BME280;17297;54.022;10.760;2024-02-15T06:34:09;101401.59;;;13.60;81.71
30516;BME280;17297;54.022;10.760;2024-02-15T06:37:10;101403.25;;;13.61;81.73
30516;BME280;17297;54.022;10.760;2024-02-15T06:39:53;101402.41;;;13.60;81.78
30516;BME280;17297;54.022;10.760;2024-02-15T06:42:19;101401.41;;;13.61;81.88
30516;BME280;17297;54.022;10.760;2024-02-15T06:44:46;101405.94;;;13.61;81.81
30516;BME280;17297;54.022;10.760;2024-02-15T06:47:12;101406.59;;;13.63;81.92
30516;BME280;17297;54.022;10.760;2024-02-15T06:49:41;101401.19;;;13.63;81.99
30516;BME280;17297;54.022;10.760;2024-02-15T06:52:10;101405.56;;;13.64;81.94
30516;BME280;17297;54.022;10.760;2024-02-15T06:54:39;101406.41;;;13.65;81.88
30516;BME280;17297;54.022;10.760;2024-02-15T06:57:05;101406.22;;;13.66;82.03
30516;BME280;17297;54.022;10.760;2024-02-15T06:59:31;101406.22;;;13.66;81.97
30516;BME280;17297;54.022;10.760;2024-02-15T07:02:01;101413.28;;;13.67;82.03
30516;BME280;17297;54.022;10.760;2024-02-15T07:04:26;101407.69;;;13.69;81.98
30516;BME280;17297;54.022;10.760;2024-02-15T07:06:53;101413.75;;;13.71;81.93
30516;BME280;17297;54.022;10.760;2024-02-15T07:09:20;101413.53;;;13.72;81.89
30516;BME280;17297;54.022;10.760;2024-02-15T07:11:46;101413.34;;;13.74;81.88
30516;BME280;17297;54.022;10.760;2024-02-15T07:14:12;101411.47;;;13.74;81.88
30516;BME280;17297;54.022;10.760;2024-02-15T07:16:38;101413.97;;;13.76;82.00
30516;BME280;17297;54.022;10.760;2024-02-15T07:19:03;101416.47;;;13.77;82.02
30516;BME280;17297;54.022;10.760;2024-02-15T07:21:29;101415.22;;;13.80;82.04
30516;BME280;17297;54.022;10.760;2024-02-15T07:23:55;101417.09;;;13.79;82.05
30516;BME280;17297;54.022;10.760;2024-02-15T07:26:21;101416.91;;;13.81;82.01
30516;BME280;17297;54.022;10.760;2024-02-15T07:28:51;101420.47;;;13.81;81.93
30516;BME280;17297;54.022;10.760;2024-02-15T07:31:18;101413.16;;;13.82;82.07
30516;BME280;17297;54.022;10.760;2024-02-15T07:33:43;101403.19;;;13.82;81.93
30516;BME280;17297;54.022;10.760;2024-02-15T07:36:08;101419.22;;;13.84;81.99
30516;BME280;17297;54.022;10.760;2024-02-15T07:38:34;101408.41;;;13.84;82.04
30516;BME280;17297;54.022;10.760;2024-02-15T07:41:00;101420.72;;;13.86;82.02
30516;BME280;17297;54.022;10.760;2024-02-15T07:43:25;101425.06;;;13.88;81.98
30516;BME280;17297;54.022;10.760;2024-02-15T07:45:51;101425.06;;;13.88;82.02
30516;BME280;17297;54.022;10.760;2024-02-15T07:48:17;101428.44;;;13.90;81.89
30516;BME280;17297;54.022;10.760;2024-02-15T07:50:42;101421.13;;;13.90;82.02
30516;BME280;17297;54.022;10.760;2024-02-15T07:53:09;101425.50;;;13.91;81.91
30516;BME280;17297;54.022;10.760;2024-02-15T07:55:36;101420.94;;;13.92;81.98
30516;BME280;17297;54.022;10.760;2024-02-15T07:58:01;101420.75;;;13.93;82.01
30516;BME280;17297;54.022;10.760;2024-02-15T08:00:27;101417.81;;;13.95;82.09
30516;BME280;17297;54.022;10.760;2024-02-15T08:02:53;101418.66;;;13.95;82.07
30516;BME280;17297;54.022;10.760;2024-02-15T08:05:19;101428.47;;;13.96;82.07
30516;BME280;17297;54.022;10.760;2024-02-15T08:07:46;101436.38;;;13.98;81.95
30516;BME280;17297;54.022;10.760;2024-02-15T08:10:12;101438.06;;;13.99;81.99
30516;BME280;17297;54.022;10.760;2024-02-15T08:12:45;101441.59;;;13.99;82.16
30516;BME280;17297;54.022;10.760;2024-02-15T08:15:11;101429.72;;;14.00;82.06
30516;BME280;17297;54.022;10.760;2024-02-15T08:17:41;101437.84;;;14.00;82.05
30516;BME280;17297;54.022;10.760;2024-02-15T08:20:10;101434.31;;;14.00;82.14
30516;BME280;17297;54.022;10.760;2024-02-15T08:22:36;101431.38;;;14.01;81.90
30516;BME280;17297;54.022;10.760;2024-02-15T08:25:11;101433.06;;;14.02;82.05
30516;BME280;17297;54.022;10.760;2024-02-15T08:27:42;101437.25;;;14.05;82.08
30516;BME280;17297;54.022;10.760;2024-02-15T08:30:13;101436.22;;;14.06;82.04
30516;BME280;17297;54.022;10.760;2024-02-15T08:32:40;101434.13;;;14.08;82.07
30516;BME280;17297;54.022;10.760;2024-02-15T08:35:10;101427.50;;;14.10;82.12
30516;BME280;17297;54.022;10.760;2024-02-15T08:37:36;101431.03;;;14.11;82.10
30516;BME280;17297;54.022;10.760;2024-02-15T08:40:04;101424.38;;;14.14;82.17
30516;BME280;17297;54.022;10.760;2024-02-15T08:42:30;101423.16;;;14.16;82.14
30516;BME280;17297;54.022;10.760;2024-02-15T08:44:55;101422.97;;;14.18;82.20
30516;BME280;17297;54.022;10.760;2024-02-15T08:47:20;101429.00;;;14.20;82.14
30516;BME280;17297;54.022;10.760;2024-02-15T08:49:46;101434.22;;;14.21;82.05
30516;BME280;17297;54.022;10.760;2024-02-15T08:52:11;101429.63;;;14.22;82.03
30516;BME280;17297;54.022;10.760;2024-02-15T08:54:37;101426.72;;;14.23;82.14
30516;BME280;17297;54.022;10.760;2024-02-15T08:57:06;101429.41;;;14.23;82.14
30516;BME280;17297;54.022;10.760;2024-02-15T08:59:31;101433.00;;;14.24;81.99
30516;BME280;17297;54.022;10.760;2024-02-15T09:01:56;101436.53;;;14.24;82.05
30516;BME280;17297;54.022;10.760;2024-02-15T09:04:22;101439.22;;;14.24;81.96
30516;BME280;17297;54.022;10.760;2024-02-15T09:06:50;101443.59;;;14.25;82.13
30516;BME280;17297;54.022;10.760;2024-02-15T09:09:16;101429.25;;;14.25;82.04
30516;BME280;17297;54.022;10.760;2024-02-15T09:11:41;101440.72;;;14.27;82.06
30516;BME280;17297;54.022;10.760;2024-02-15T09:14:07;101432.59;;;14.27;82.11
30516;BME280;17297;54.022;10.760;2024-02-15T09:16:35;101444.84;;;14.29;82.23
30516;BME280;17297;54.022;10.760;2024-02-15T09:19:01;101443.00;;;14.30;82.20
30516;BME280;17297;54.022;10.760;2024-02-15T09:21:27;101444.47;;;14.32;82.22
30516;BME280;17297;54.022;10.760;2024-02-15T09:23:54;101440.75;;;14.33;82.18
30516;BME280;17297;54.022;10.760;2024-02-15T09:26:19;101438.84;;;14.34;82.15
30516;BME280;17297;54.022;10.760;2024-02-15T09:28:45;101434.94;;;14.37;82.16
30516;BME280;17297;54.022;10.760;2024-02-15T09:31:13;101431.16;;;14.38;82.22
30516;BME280;17297;54.022;10.760;2024-02-15T09:33:39;101432.66;;;14.40;82.06
30516;BME280;17297;54.022;10.760;2024-02-15T09:36:05;101428.06;;;14.41;82.18
30516;BME280;17297;54.022;10.760;2024-02-15T09:38:30;101433.25;;;14.42;82.22
30516;BME280;17297;54.022;10.760;2024-02-15T09:40:56;101437.66;;;14.43;82.09
30516;BME280;17297;54.022;10.760;2024-02-15T09:43:21;101426.81;;;14.43;82.08
30516;BME280;17297;54.022;10.760;2024-02-15T09:45:50;101429.13;;;14.46;82.21
30516;BME280;17297;54.022;10.760;2024-02-15T09:48:16;101429.97;;;14.47;82.15
30516;BME280;17297;54.022;10.760;2024-02-15T09:50:43;101426.22;;;14.48;82.22
30516;BME280;17297;54.022;10.760;2024-02-15T09:53:12;101434.16;;;14.49;82.17
30516;BME280;17297;54.022;10.760;2024-02-15T09:55:39;101431.25;;;14.51;82.30
30516;BME280;17297;54.022;10.760;2024-02-15T09:58:07;101424.59;;;14.53;82.27
30516;BME280;17297;54.022;10.760;2024-02-15T10:00:33;101435.84;;;14.57;82.38
30516;BME280;17297;54.022;10.760;2024-02-15T10:03:00;101435.44;;;14.60;82.34
30516;BME280;17297;54.022;10.760;2024-02-15T10:05:27;101439.44;;;14.64;82.38
30516;BME280;17297;54.022;10.760;2024-02-15T10:07:53;101427.16;;;14.68;82.34
30516;BME280;17297;54.022;10.760;2024-02-15T10:10:20;101418.41;;;14.73;82.46
30516;BME280;17297;54.022;10.760;2024-02-15T10:12:46;101429.47;;;14.78;82.39
30516;BME280;17297;54.022;10.760;2024-02-15T10:15:34;101427.19;;;14.82;82.67
30516;BME280;17297;54.022;10.760;2024-02-15T10:18:04;101429.50;;;14.85;82.42
30516;BME280;17297;54.022;10.760;2024-02-15T10:20:31;101421.19;;;14.86;82.28
30516;BME280;17297;54.022;10.760;2024-02-15T10:25:28;101432.22;;;14.91;82.31
30516;BME280;17297;54.022;10.760;2024-02-15T10:28:14;;;;14.91;
30516;BME280;17297;54.022;10.760;2024-02-15T10:30:45;101430.13;;;14.93;82.04
30516;BME280;17297;54.022;10.760;2024-02-15T10:33:21;101428.66;;;14.91;82.07
30516;BME280;17297;54.022;10.760;2024-02-15T10:36:05;101433.91;;;14.92;82.28
30516;BME280;17297;54.022;10.760;2024-02-15T10:38:31;101423.06;;;14.92;82.09
30516;BME280;17297;54.022;10.760;2024-02-15T10:41:03;101424.72;;;14.93;82.23
30516;BME280;17297;54.022;10.760;2024-02-15T10:43:30;101432.44;;;14.96;82.23
30516;BME280;17297;54.022;10.760;2024-02-15T10:45:56;101427.66;;;14.98;82.18
30516;BME280;17297;54.022;10.760;2024-02-15T10:48:21;101430.16;;;15.00;82.26
30516;BME280;17297;54.022;10.760;2024-02-15T10:50:47;101431.63;;;15.02;82.10
30516;BME280;17297;54.022;10.760;2024-02-15T10:53:28;101434.31;;;15.02;82.15
30516;BME280;17297;54.022;10.760;2024-02-15T10:56:11;101433.28;;;15.04;82.06
30516;BME280;17297;54.022;10.760;2024-02-15T10:58:46;101424.13;;;15.05;82.27
30516;BME280;17297;54.022;10.760;2024-02-15T11:01:12;101428.28;;;15.07;82.03
30516;BME280;17297;54.022;10.760;2024-02-15T11:04:06;101421.84;;;15.08;82.17
30516;BME280;17297;54.022;10.760;2024-02-15T11:06:30;101416.84;;;15.12;82.16
30516;BME280;17297;54.022;10.760;2024-02-15T11:08:59;101419.31;;;15.13;82.13
30516;BME280;17297;54.022;10.760;2024-02-15T11:11:25;101417.25;;;15.15;82.03
30516;BME280;17297;54.022;10.760;2024-02-15T11:16:48;101424.75;;;15.20;82.07
30516;BME280;17297;54.022;10.760;2024-02-15T11:22:00;101421.00;;;15.21;82.11
30516;BME280;17297;54.022;10.760;2024-02-15T11:24:30;101419.13;;;15.21;82.05
30516;BME280;17297;54.022;10.760;2024-02-15T11:27:05;101417.47;;;15.20;81.91
30516;BME280;17297;54.022;10.760;2024-02-15T11:32:43;101419.13;;;15.21;81.98
30516;BME280;17297;54.022;10.760;2024-02-15T11:35:10;101406.63;;;15.20;82.05
30516;BME280;17297;54.022;10.760;2024-02-15T11:42:44;101407.25;;;15.22;81.78
30516;BME280;17297;54.022;10.760;2024-02-15T11:45:09;101402.66;;;15.23;81.86
30516;BME280;17297;54.022;10.760;2024-02-15T11:47:39;101400.81;;;15.23;82.00
30516;BME280;17297;54.022;10.760;2024-02-15T11:50:10;101402.47;;;15.24;82.04
30516;BME280;17297;54.022;10.760;2024-02-15T11:52:40;101402.47;;;15.24;82.07
30516;BME280;17297;54.022;10.760;2024-02-15T11:55:08;101393.28;;;15.25;81.98
30516;BME280;17297;54.022;10.760;2024-02-15T11:57:39;101394.97;;;15.27;81.95
30516;BME280;17297;54.022;10.760;2024-02-15T12:00:21;101388.69;;;15.26;82.11
30516;BME280;17297;54.022;10.760;2024-02-15T12:03:05;101390.38;;;15.27;81.92
30516;BME280;17297;54.022;10.760;2024-02-15T12:05:50;101385.78;;;15.28;82.04
30516;BME280;17297;54.022;10.760;2024-02-15T12:08:34;101387.44;;;15.29;81.96
30516;BME280;17297;54.022;10.760;2024-02-15T12:11:18;101379.31;;;15.29;81.88
30516;BME280;17297;54.022;10.760;2024-02-15T12:14:02;101382.00;;;15.29;82.00
30516;BME280;17297;54.022;10.760;2024-02-15T12:16:46;101378.28;;;15.30;81.89
30516;BME280;17297;54.022;10.760;2024-02-15T12:19:29;101373.69;;;15.30;81.89
30516;BME280;17297;54.022;10.760;2024-02-15T12:21:57;101370.75;;;15.32;82.04
30516;BME280;17297;54.022;10.760;2024-02-15T12:24:23;101371.16;;;15.35;82.14
30516;BME280;17297;54.022;10.760;2024-02-15T12:26:59;101379.94;;;15.37;82.03
30516;BME280;17297;54.022;10.760;2024-02-15T12:29:25;101361.78;;;15.38;82.14
30516;BME280;17297;54.022;10.760;2024-02-15T12:31:51;101371.56;;;15.39;82.06
30516;BME280;17297;54.022;10.760;2024-02-15T12:34:20;101359.72;;;15.40;82.07
30516;BME280;17297;54.022;10.760;2024-02-15T12:36:45;101361.19;;;15.42;81.87
30516;BME280;17297;54.022;10.760;2024-02-15T12:39:11;101365.53;;;15.43;82.00
30516;BME280;17297;54.022;10.760;2024-02-15T12:41:49;101357.59;;;15.42;82.10
30516;BME280;17297;54.022;10.760;2024-02-15T12:44:18;101360.13;;;15.43;81.90
30516;BME280;17297;54.022;10.760;2024-02-15T12:46:53;101366.38;;;15.44;81.94
30516;BME280;17297;54.022;10.760;2024-02-15T12:51:53;101358.25;;;15.44;81.83
30516;BME280;17297;54.022;10.760;2024-02-15T12:54:22;101355.53;;;15.44;81.94
30516;BME280;17297;54.022;10.760;2024-02-15T12:56:49;101357.19;;;15.45;81.93
30516;BME280;17297;54.022;10.760;2024-02-15T12:59:16;101359.06;;;15.44;81.88
30516;BME280;17297;54.022;10.760;2024-02-15T13:01:41;101363.66;;;15.44;81.75
30516;BME280;17297;54.022;10.760;2024-02-15T13:04:08;101353.88;;;15.43;81.91